Time;durP1;ratioP1;P1;durP2;ratioP2;P2;SDS_P1;SDS_P2;PMS_P1;PMS_P2;Temp;Humidity;BMP_temperature;BMP_pressure;BME280_temperature;BME280_humidity;BME280_pressure;Samples;Min_cycle;Max_cycle;Signal;HPM_P1;HPM_P2
2022/04/13 00:01:28;;;;;;;2.90;1.40;;;;;;;;;;4734882;28;10000468;-71
2022/04/13 00:03:54;;;;;;;2.55;1.73;;;;;;;;;;5080582;28;20278;-71
2022/04/13 00:06:20;;;;;;;2.35;1.30;;;;;;;;;;5088542;28;20044;-71
2022/04/13 00:08:46;;;;;;;2.40;1.73;;;;;;;;;;5086887;28;20047;-71
2022/04/13 00:11:13;;;;;;;2.58;1.55;;;;;;;;;;5093146;28;20032;-71
2022/04/13 00:13:39;;;;;;;1.90;1.42;;;;;;;;;;5085438;28;20035;-71
2022/04/13 00:16:05;;;;;;;3.03;1.60;;;;;;;;;;5083164;28;20028;-71
2022/04/13 00:18:31;;;;;;;3.65;1.65;;;;;;;;;;5089134;28;20437;-71
2022/04/13 00:20:57;;;;;;;2.47;1.73;;;;;;;;;;5087497;27;20344;-71
2022/04/13 00:23:23;;;;;;;3.45;1.70;;;;;;;;;;5097769;28;20023;-71
2022/04/13 00:25:49;;;;;;;2.22;1.60;;;;;;;;;;5087151;28;20131;-71
2022/04/13 00:28:16;;;;;;;2.15;1.60;;;;;;;;;;5091720;28;20089;-71
2022/04/13 00:30:42;;;;;;;1.90;1.60;;;;;;;;;;5086115;28;20082;-72
2022/04/13 00:33:08;;;;;;;1.60;1.50;;;;;;;;;;5089540;28;20030;-71
2022/04/13 00:35:35;;;;;;;1.90;1.40;;;;;;;;;;5083290;28;20182;-71
2022/04/13 00:38:01;;;;;;;2.33;1.60;;;;;;;;;;5094491;28;20046;-71
2022/04/13 00:40:27;;;;;;;2.40;1.65;;;;;;;;;;5085434;28;20023;-70
2022/04/13 00:42:53;;;;;;;3.67;1.38;;;;;;;;;;5090489;28;20020;-71
2022/04/13 00:45:19;;;;;;;1.80;1.50;;;;;;;;;;5088009;28;20515;-71
2022/04/13 00:47:46;;;;;;;4.70;2.22;;;;;;;;;;5094126;28;20093;-71
2022/04/13 00:50:12;;;;;;;3.13;1.90;;;;;;;;;;5083872;28;20036;-71
2022/04/13 00:52:41;;;;;;;1.75;1.60;;;;;;;;;;5091927;28;20125;-71
2022/04/13 00:55:08;;;;;;;3.30;2.00;;;;;;;;;;5086929;28;20096;-71
2022/04/13 00:57:35;;;;;;;2.58;1.63;;;;;;;;;;5086498;28;20039;-71
2022/04/13 01:00:02;;;;;;;2.88;1.75;;;;;;;;;;5085887;28;20028;-71
2022/04/13 01:02:28;;;;;;;2.50;1.65;;;;;;;;;;5090878;28;20028;-71
2022/04/13 01:04:55;;;;;;;2.25;1.55;;;;;;;;;;5084117;28;20399;-71
2022/04/13 01:07:22;;;;;;;2.17;1.70;;;;;;;;;;5088080;28;20414;-71
2022/04/13 01:09:49;;;;;;;2.95;1.80;;;;;;;;;;5087083;28;20456;-71
2022/04/13 01:12:15;;;;;;;3.75;2.03;;;;;;;;;;5089165;28;20050;-71
2022/04/13 01:14:41;;;;;;;2.67;1.60;;;;;;;;;;5089480;28;20032;-71
2022/04/13 01:17:07;;;;;;;4.20;1.90;;;;;;;;;;5093170;28;20036;-71
2022/04/13 01:19:33;;;;;;;3.80;1.90;;;;;;;;;;5095583;28;20469;-71
2022/04/13 01:22:03;;;;;;;2.63;1.65;;;;;;;;;;5096194;28;20386;-71
2022/04/13 01:24:29;;;;;;;4.13;2.38;;;;;;;;;;5083396;28;20052;-71
2022/04/13 01:26:56;;;;;;;4.55;2.63;;;;;;;;;;5089886;28;20101;-71
2022/04/13 01:29:22;;;;;;;4.55;2.10;;;;;;;;;;5090494;28;20039;-71
2022/04/13 01:31:49;;;;;;;5.63;1.83;;;;;;;;;;5094247;28;20024;-71
2022/04/13 01:34:15;;;;;;;4.60;1.90;;;;;;;;;;5088936;28;20038;-71
2022/04/13 01:36:41;;;;;;;3.67;1.75;;;;;;;;;;5094860;28;20027;-71
2022/04/13 01:39:08;;;;;;;5.28;2.05;;;;;;;;;;5097484;28;20020;-71
2022/04/13 01:41:34;;;;;;;4.60;2.03;;;;;;;;;;5096832;28;20024;-71
2022/04/13 01:44:00;;;;;;;5.05;2.47;;;;;;;;;;5085360;28;20032;-72
2022/04/13 01:46:26;;;;;;;2.53;1.73;;;;;;;;;;5090024;28;20031;-71
2022/04/13 01:48:52;;;;;;;3.80;2.35;;;;;;;;;;5091297;28;20119;-71
2022/04/13 01:51:20;;;;;;;6.07;2.03;;;;;;;;;;5094950;28;20482;-71
2022/04/13 01:53:46;;;;;;;4.35;2.13;;;;;;;;;;5091556;28;20034;-71
2022/04/13 01:56:12;;;;;;;4.72;2.05;;;;;;;;;;5097162;28;20436;-71
2022/04/13 01:58:38;;;;;;;2.40;2.08;;;;;;;;;;5095112;28;20254;-71
2022/04/13 02:01:04;;;;;;;2.70;1.80;;;;;;;;;;5088918;28;20454;-71
2022/04/13 02:03:30;;;;;;;4.28;1.90;;;;;;;;;;5089065;28;20030;-71
2022/04/13 02:05:57;;;;;;;5.25;2.28;;;;;;;;;;5087361;28;20104;-71
2022/04/13 02:08:23;;;;;;;4.70;2.00;;;;;;;;;;5091809;28;20055;-71
2022/04/13 02:10:49;;;;;;;3.55;1.90;;;;;;;;;;5091312;28;20512;-71
2022/04/13 02:13:16;;;;;;;3.28;1.85;;;;;;;;;;5089502;28;20120;-71
2022/04/13 02:15:43;;;;;;;3.53;2.25;;;;;;;;;;5085495;28;20032;-71
2022/04/13 02:18:09;;;;;;;3.65;2.63;;;;;;;;;;5088292;28;21654;-71
2022/04/13 02:20:35;;;;;;;5.05;2.72;;;;;;;;;;5092681;28;20499;-71
2022/04/13 02:23:04;;;;;;;4.57;3.20;;;;;;;;;;5093523;28;20020;-71
2022/04/13 02:25:30;;;;;;;5.65;3.00;;;;;;;;;;5088084;28;20476;-71
2022/04/13 02:27:56;;;;;;;6.03;3.00;;;;;;;;;;5090020;28;20055;-71
2022/04/13 02:30:22;;;;;;;4.97;3.05;;;;;;;;;;5092516;28;20044;-71
2022/04/13 02:32:48;;;;;;;6.65;3.15;;;;;;;;;;5092792;28;20027;-71
2022/04/13 02:35:14;;;;;;;3.97;3.05;;;;;;;;;;5082839;28;20032;-71
2022/04/13 02:37:40;;;;;;;5.30;2.70;;;;;;;;;;5087613;28;20039;-71
2022/04/13 02:40:07;;;;;;;4.00;2.40;;;;;;;;;;5084523;28;22019;-71
2022/04/13 02:42:34;;;;;;;4.45;2.60;;;;;;;;;;5086443;28;20066;-71
2022/04/13 02:45:03;;;;;;;5.75;2.60;;;;;;;;;;5089956;28;20551;-71
2022/04/13 02:47:29;;;;;;;2.88;1.90;;;;;;;;;;5095640;28;20024;-71
2022/04/13 02:49:55;;;;;;;3.08;2.08;;;;;;;;;;5097342;28;20029;-72
2022/04/13 02:52:23;;;;;;;2.95;1.88;;;;;;;;;;5087589;28;20444;-71
2022/04/13 02:54:49;;;;;;;4.32;2.38;;;;;;;;;;5089919;28;20074;-71
2022/04/13 02:57:15;;;;;;;3.08;1.80;;;;;;;;;;5092657;28;20515;-72
2022/04/13 02:59:45;;;;;;;3.65;2.00;;;;;;;;;;5091821;28;20020;-71
2022/04/13 03:02:11;;;;;;;2.67;2.28;;;;;;;;;;5088012;28;20111;-71
2022/04/13 03:04:38;;;;;;;3.33;2.10;;;;;;;;;;5087520;28;20347;-71
2022/04/13 03:07:04;;;;;;;4.72;1.90;;;;;;;;;;5089928;28;20115;-71
2022/04/13 03:09:30;;;;;;;3.58;2.13;;;;;;;;;;5091851;28;20176;-71
2022/04/13 03:11:56;;;;;;;4.25;2.42;;;;;;;;;;5086634;28;20683;-71
2022/04/13 03:14:23;;;;;;;4.28;2.45;;;;;;;;;;5086876;28;20051;-71
2022/04/13 03:16:49;;;;;;;3.35;2.10;;;;;;;;;;5096075;28;20494;-71
2022/04/13 03:19:15;;;;;;;6.10;2.60;;;;;;;;;;5094453;28;20435;-71
2022/04/13 03:21:41;;;;;;;4.53;2.75;;;;;;;;;;5090230;28;20024;-71
2022/04/13 03:24:07;;;;;;;4.28;2.58;;;;;;;;;;5084562;28;20032;-71
2022/04/13 03:26:33;;;;;;;4.88;2.35;;;;;;;;;;5091986;28;20255;-71
2022/04/13 03:28:59;;;;;;;4.97;2.45;;;;;;;;;;5101832;28;20067;-71
2022/04/13 03:31:25;;;;;;;5.18;2.95;;;;;;;;;;5095678;28;20027;-71
2022/04/13 03:33:51;;;;;;;3.33;2.80;;;;;;;;;;5086902;28;20062;-71
2022/04/13 03:36:18;;;;;;;5.90;3.03;;;;;;;;;;5102309;28;20031;-71
2022/04/13 03:38:44;;;;;;;5.38;2.60;;;;;;;;;;5089804;28;20023;-71
2022/04/13 03:41:10;;;;;;;4.35;2.67;;;;;;;;;;5091700;28;20107;-71
2022/04/13 03:43:36;;;;;;;5.80;2.72;;;;;;;;;;5091773;28;20024;-71
2022/04/13 03:46:03;;;;;;;6.13;2.75;;;;;;;;;;5085778;28;20024;-72
2022/04/13 03:48:29;;;;;;;5.53;2.50;;;;;;;;;;5096061;28;20097;-71
2022/04/13 03:50:57;;;;;;;3.70;2.28;;;;;;;;;;5101662;28;20036;-71
2022/04/13 03:53:23;;;;;;;5.53;2.50;;;;;;;;;;5094221;28;20032;-72
2022/04/13 03:55:49;;;;;;;4.40;2.63;;;;;;;;;;5098126;28;20067;-71
2022/04/13 03:58:15;;;;;;;3.05;2.28;;;;;;;;;;5097595;28;20044;-72
2022/04/13 04:00:41;;;;;;;3.92;2.10;;;;;;;;;;5086305;28;20161;-71
2022/04/13 04:03:07;;;;;;;4.05;2.03;;;;;;;;;;5089890;28;20406;-71
2022/04/13 04:05:33;;;;;;;3.22;2.20;;;;;;;;;;5094212;28;20609;-72
2022/04/13 04:07:59;;;;;;;2.80;2.15;;;;;;;;;;5090335;28;20069;-71
2022/04/13 04:10:25;;;;;;;5.05;2.85;;;;;;;;;;5083494;28;20126;-71
2022/04/13 04:12:51;;;;;;;3.92;2.75;;;;;;;;;;5092667;28;20259;-71
2022/04/13 04:15:17;;;;;;;4.13;3.10;;;;;;;;;;5089279;28;20076;-71
2022/04/13 04:17:43;;;;;;;6.75;3.10;;;;;;;;;;5089085;28;20032;-71
2022/04/13 04:20:09;;;;;;;4.90;3.30;;;;;;;;;;5089096;28;20027;-71
2022/04/13 04:22:36;;;;;;;4.22;3.20;;;;;;;;;;5092827;28;20235;-71
2022/04/13 04:25:06;;;;;;;3.88;3.25;;;;;;;;;;5091050;28;20511;-71
2022/04/13 04:27:32;;;;;;;3.63;3.03;;;;;;;;;;5100173;28;20036;-71
2022/04/13 04:29:58;;;;;;;3.88;3.05;;;;;;;;;;5083537;28;20082;-71
2022/04/13 04:32:24;;;;;;;4.60;3.30;;;;;;;;;;5092214;28;20027;-71
2022/04/13 04:34:51;;;;;;;4.20;2.97;;;;;;;;;;5094597;28;20514;-71
2022/04/13 04:37:17;;;;;;;3.60;2.55;;;;;;;;;;5092708;28;20035;-71
2022/04/13 04:39:43;;;;;;;4.15;2.85;;;;;;;;;;5090639;28;20023;-71
2022/04/13 04:42:09;;;;;;;5.53;2.45;;;;;;;;;;5089162;28;20020;-71
2022/04/13 04:44:35;;;;;;;4.50;2.85;;;;;;;;;;5097850;28;20401;-71
2022/04/13 04:47:01;;;;;;;3.80;2.28;;;;;;;;;;5091826;28;20028;-71
2022/04/13 04:49:27;;;;;;;3.05;2.00;;;;;;;;;;5088748;28;20731;-71
2022/04/13 04:51:53;;;;;;;3.85;2.17;;;;;;;;;;5093629;28;20028;-71
2022/04/13 04:54:19;;;;;;;3.55;2.35;;;;;;;;;;5083848;28;20024;-71
2022/04/13 04:56:45;;;;;;;3.53;2.33;;;;;;;;;;5089745;28;20035;-71
2022/04/13 04:59:11;;;;;;;4.43;2.20;;;;;;;;;;5087031;28;20016;-72
2022/04/13 05:01:37;;;;;;;4.72;2.67;;;;;;;;;;5088466;28;20058;-71
2022/04/13 05:04:03;;;;;;;3.92;2.90;;;;;;;;;;5080294;28;20406;-71
2022/04/13 05:06:29;;;;;;;5.32;3.05;;;;;;;;;;5099353;28;20072;-71
2022/04/13 05:08:56;;;;;;;8.00;3.58;;;;;;;;;;5098300;28;20114;-71
2022/04/13 05:11:22;;;;;;;6.55;3.63;;;;;;;;;;5094880;28;20028;-71
2022/04/13 05:13:48;;;;;;;8.15;4.50;;;;;;;;;;5092832;28;20119;-71
2022/04/13 05:16:14;;;;;;;11.40;6.82;;;;;;;;;;5098668;28;20035;-71
2022/04/13 05:18:41;;;;;;;10.90;5.05;;;;;;;;;;5094748;28;20027;-71
2022/04/13 05:21:07;;;;;;;5.60;3.80;;;;;;;;;;5094419;28;20545;-71
2022/04/13 05:23:33;;;;;;;5.65;3.80;;;;;;;;;;4744476;28;10000360;-70
2022/04/13 05:25:59;;;;;;;5.60;4.07;;;;;;;;;;5087036;28;20032;-70
2022/04/13 05:28:25;;;;;;;8.68;4.18;;;;;;;;;;5089359;28;20036;-71
2022/04/13 05:30:51;;;;;;;8.85;4.22;;;;;;;;;;5091084;28;20560;-71
2022/04/13 05:33:17;;;;;;;5.07;4.00;;;;;;;;;;5092802;28;20031;-71
2022/04/13 05:35:45;;;;;;;5.03;3.80;;;;;;;;;;5087298;28;20024;-71
2022/04/13 05:38:11;;;;;;;5.53;3.70;;;;;;;;;;5088385;28;20035;-71
2022/04/13 05:40:37;;;;;;;6.95;4.00;;;;;;;;;;5086159;28;20031;-71
2022/04/13 05:43:03;;;;;;;9.43;4.35;;;;;;;;;;5100647;28;20027;-71
2022/04/13 05:45:29;;;;;;;7.38;4.68;;;;;;;;;;5089181;28;20548;-71
2022/04/13 05:47:55;;;;;;;7.65;4.15;;;;;;;;;;5085885;28;20039;-70
2022/04/13 05:50:21;;;;;;;9.00;4.32;;;;;;;;;;5091531;28;20035;-71
2022/04/13 05:52:47;;;;;;;8.43;3.55;;;;;;;;;;5094203;28;20085;-71
2022/04/13 05:55:13;;;;;;;6.32;3.83;;;;;;;;;;5093306;28;20023;-71
2022/04/13 05:57:39;;;;;;;7.50;4.10;;;;;;;;;;5094396;28;20032;-71
2022/04/13 06:00:06;;;;;;;5.88;4.10;;;;;;;;;;5094892;28;20476;-71
2022/04/13 06:02:33;;;;;;;6.93;4.10;;;;;;;;;;5097475;28;20036;-71
2022/04/13 06:04:59;;;;;;;9.85;4.82;;;;;;;;;;5088197;28;20073;-71
2022/04/13 06:07:25;;;;;;;5.55;4.00;;;;;;;;;;5092765;28;20028;-71
2022/04/13 06:09:51;;;;;;;7.50;4.10;;;;;;;;;;5097961;28;20606;-71
2022/04/13 06:12:23;;;;;;;6.32;3.90;;;;;;;;;;5092805;28;20115;-71
2022/04/13 06:14:50;;;;;;;7.40;4.70;;;;;;;;;;5089385;28;20031;-72
2022/04/13 06:17:16;;;;;;;5.97;4.05;;;;;;;;;;5089785;28;20016;-71
2022/04/13 06:19:43;;;;;;;7.85;3.97;;;;;;;;;;5095559;28;20023;-71
2022/04/13 06:22:09;;;;;;;9.90;4.30;;;;;;;;;;5099128;28;20064;-71
2022/04/13 06:24:35;;;;;;;5.20;3.70;;;;;;;;;;5093742;28;20031;-72
2022/04/13 06:27:01;;;;;;;4.57;3.53;;;;;;;;;;5096219;28;20123;-71
2022/04/13 06:29:27;;;;;;;9.30;3.78;;;;;;;;;;5088001;28;20126;-71
2022/04/13 06:31:53;;;;;;;4.95;3.30;;;;;;;;;;5083222;28;20076;-72
2022/04/13 06:34:19;;;;;;;5.30;3.67;;;;;;;;;;5081295;28;20388;-72
2022/04/13 06:36:45;;;;;;;9.82;4.10;;;;;;;;;;5095158;28;20034;-71
2022/04/13 06:39:11;;;;;;;8.48;4.45;;;;;;;;;;5093146;28;20051;-71
2022/04/13 06:41:37;;;;;;;10.27;5.70;;;;;;;;;;5087596;28;20109;-71
2022/04/13 06:44:03;;;;;;;10.65;6.28;;;;;;;;;;5091370;28;20636;-72
2022/04/13 06:46:31;;;;;;;10.18;6.05;;;;;;;;;;5089904;28;20040;-71
2022/04/13 06:48:58;;;;;;;9.40;5.97;;;;;;;;;;5089951;28;20032;-72
2022/04/13 06:51:24;;;;;;;10.75;5.43;;;;;;;;;;5090595;28;20589;-71
2022/04/13 06:53:50;;;;;;;8.50;4.20;;;;;;;;;;5090981;28;20111;-71
2022/04/13 06:56:16;;;;;;;8.48;4.55;;;;;;;;;;5097462;28;20012;-71
2022/04/13 06:58:42;;;;;;;6.95;4.40;;;;;;;;;;5090972;28;20044;-71
2022/04/13 07:01:09;;;;;;;10.35;4.43;;;;;;;;;;5091174;28;20024;-72
2022/04/13 07:03:35;;;;;;;7.80;4.15;;;;;;;;;;5093954;28;20023;-71
2022/04/13 07:06:01;;;;;;;8.50;4.03;;;;;;;;;;5091808;28;20040;-71
2022/04/13 07:08:27;;;;;;;6.60;4.30;;;;;;;;;;5094638;28;20200;-72
2022/04/13 07:10:53;;;;;;;5.55;4.10;;;;;;;;;;5089632;28;20527;-76
2022/04/13 07:13:19;;;;;;;7.82;4.07;;;;;;;;;;5092964;28;20027;-76
2022/04/13 07:15:45;;;;;;;8.32;3.75;;;;;;;;;;5097393;28;20118;-75
2022/04/13 07:18:11;;;;;;;7.57;3.53;;;;;;;;;;5107434;28;20117;-76
2022/04/13 07:20:38;;;;;;;5.82;4.10;;;;;;;;;;5092775;28;20028;-75
2022/04/13 07:23:04;;;;;;;6.28;3.97;;;;;;;;;;5089298;28;20404;-76
2022/04/13 07:25:30;;;;;;;7.00;4.22;;;;;;;;;;5086016;28;20583;-75
2022/04/13 07:27:56;;;;;;;6.95;3.70;;;;;;;;;;5088412;28;20067;-75
2022/04/13 07:30:22;;;;;;;7.25;3.63;;;;;;;;;;5088345;28;20067;-75
2022/04/13 07:32:51;;;;;;;4.32;3.38;;;;;;;;;;5100493;28;20032;-75
2022/04/13 07:35:17;;;;;;;5.93;3.22;;;;;;;;;;5099800;28;20043;-76
2022/04/13 07:37:43;;;;;;;4.57;3.10;;;;;;;;;;5098614;28;20035;-76
2022/04/13 07:40:13;;;;;;;8.20;3.00;;;;;;;;;;5094844;28;20027;-76
2022/04/13 07:42:40;;;;;;;9.13;3.40;;;;;;;;;;5105359;28;20023;-76
2022/04/13 07:45:07;;;;;;;6.45;3.05;;;;;;;;;;5095556;28;20027;-76
2022/04/13 07:47:33;;;;;;;5.18;3.00;;;;;;;;;;5097928;28;20495;-76
2022/04/13 07:49:59;;;;;;;5.65;2.90;;;;;;;;;;5093810;28;20232;-79
2022/04/13 07:52:26;;;;;;;5.43;3.20;;;;;;;;;;5088051;28;20105;-79
2022/04/13 07:54:51;;;;;;;5.38;3.35;;;;;;;;;;5090125;28;20024;-74
2022/04/13 07:57:17;;;;;;;5.63;3.30;;;;;;;;;;5092738;28;20096;-74
2022/04/13 07:59:44;;;;;;;11.45;3.20;;;;;;;;;;5087347;28;20020;-74
2022/04/13 08:02:10;;;;;;;4.90;3.55;;;;;;;;;;5089709;28;20024;-73
2022/04/13 08:04:36;;;;;;;7.95;3.47;;;;;;;;;;5102620;28;20372;-75
2022/04/13 08:07:03;;;;;;;6.97;3.42;;;;;;;;;;5087875;28;20082;-74
2022/04/13 08:09:29;;;;;;;5.20;3.50;;;;;;;;;;5095464;28;20116;-74
2022/04/13 08:11:54;;;;;;;5.55;3.97;;;;;;;;;;5086818;28;20502;-75
2022/04/13 08:14:21;;;;;;;10.73;4.30;;;;;;;;;;5084696;28;20110;-74
2022/04/13 08:16:47;;;;;;;7.15;3.80;;;;;;;;;;5080655;28;20043;-74
2022/04/13 08:19:13;;;;;;;12.05;3.92;;;;;;;;;;5095520;28;20020;-74
2022/04/13 08:21:39;;;;;;;8.18;3.60;;;;;;;;;;5089293;28;20476;-73
2022/04/13 08:24:05;;;;;;;10.98;3.55;;;;;;;;;;5089298;28;21175;-75
2022/04/13 08:26:31;;;;;;;9.75;3.40;;;;;;;;;;5091329;28;20028;-73
2022/04/13 08:28:57;;;;;;;13.35;3.90;;;;;;;;;;5088135;28;20024;-74
2022/04/13 08:31:23;;;;;;;8.05;3.25;;;;;;;;;;5092390;28;20488;-74
2022/04/13 08:33:49;;;;;;;4.70;3.10;;;;;;;;;;5096439;28;20020;-75
2022/04/13 08:36:15;;;;;;;3.80;3.00;;;;;;;;;;5094319;28;20380;-74
2022/04/13 08:38:41;;;;;;;11.40;3.20;;;;;;;;;;5092143;28;20032;-74
2022/04/13 08:41:19;;;;;;;4.82;2.78;;;;;;;;;;5085054;28;20429;-74
2022/04/13 08:43:48;;;;;;;6.07;2.65;;;;;;;;;;5094649;28;20452;-74
2022/04/13 08:46:24;;;;;;;9.57;3.03;;;;;;;;;;5091047;28;20038;-76
2022/04/13 08:48:52;;;;;;;8.93;3.05;;;;;;;;;;5094161;28;20435;-75
2022/04/13 08:51:19;;;;;;;4.45;3.00;;;;;;;;;;5090099;28;20639;-74
2022/04/13 08:53:47;;;;;;;4.35;2.70;;;;;;;;;;5096634;28;20600;-75
2022/04/13 08:56:16;;;;;;;7.72;2.78;;;;;;;;;;5088854;28;20186;-75
2022/04/13 08:58:50;;;;;;;5.00;2.70;;;;;;;;;;5087547;28;20032;-74
2022/04/13 09:01:40;;;;;;;6.97;2.92;;;;;;;;;;5085637;28;20509;-76
2022/04/13 09:04:07;;;;;;;4.85;2.53;;;;;;;;;;5040513;28;20553;-75
2022/04/13 09:06:34;;;;;;;5.43;2.60;;;;;;;;;;5091150;28;20062;-75
2022/04/13 09:09:05;;;;;;;5.88;3.10;;;;;;;;;;5093929;28;20058;-75
2022/04/13 09:11:32;;;;;;;7.28;3.30;;;;;;;;;;5096026;28;20057;-75
2022/04/13 09:13:58;;;;;;;6.47;3.38;;;;;;;;;;5084446;28;20031;-74
2022/04/13 09:16:24;;;;;;;5.80;2.92;;;;;;;;;;5087518;28;20024;-75
2022/04/13 09:18:50;;;;;;;7.03;3.47;;;;;;;;;;5086739;28;20121;-76
2022/04/13 09:21:17;;;;;;;4.78;3.20;;;;;;;;;;5093118;28;20486;-75
2022/04/13 09:23:44;;;;;;;6.20;3.58;;;;;;;;;;5085059;28;20460;-74
2022/04/13 09:26:10;;;;;;;5.13;3.45;;;;;;;;;;5085604;28;20020;-74
2022/04/13 09:28:37;;;;;;;5.20;3.50;;;;;;;;;;5086308;28;20531;-74
2022/04/13 09:31:03;;;;;;;5.13;3.20;;;;;;;;;;5104069;28;20028;-74
2022/04/13 09:33:29;;;;;;;7.20;3.22;;;;;;;;;;5089493;28;20441;-74
2022/04/13 09:35:55;;;;;;;7.43;4.07;;;;;;;;;;5086413;28;20060;-75
2022/04/13 09:38:21;;;;;;;7.75;4.03;;;;;;;;;;5088682;28;20119;-75
2022/04/13 09:40:50;;;;;;;9.27;4.03;;;;;;;;;;5090508;28;20028;-76
2022/04/13 09:43:17;;;;;;;5.80;3.63;;;;;;;;;;5088762;28;20028;-77
2022/04/13 09:45:47;;;;;;;6.53;3.95;;;;;;;;;;5099081;28;20166;-77
2022/04/13 09:48:18;;;;;;;6.90;4.18;;;;;;;;;;5098630;28;20114;-77
2022/04/13 09:50:46;;;;;;;7.57;3.92;;;;;;;;;;5090848;28;20387;-77
2022/04/13 09:53:13;;;;;;;6.55;4.32;;;;;;;;;;5089249;28;20036;-77
2022/04/13 09:55:40;;;;;;;10.35;4.40;;;;;;;;;;5092305;28;20036;-77
2022/04/13 09:58:07;;;;;;;7.50;3.92;;;;;;;;;;5091799;28;20082;-77
2022/04/13 10:00:34;;;;;;;6.97;4.55;;;;;;;;;;5094733;28;20442;-77
2022/04/13 10:03:26;;;;;;;9.77;4.28;;;;;;;;;;5089836;28;20057;-76
2022/04/13 10:05:53;;;;;;;12.20;4.70;;;;;;;;;;5081323;28;20079;-77
2022/04/13 10:08:24;;;;;;;7.15;4.18;;;;;;;;;;5088901;28;20097;-78
2022/04/13 10:10:51;;;;;;;7.88;4.57;;;;;;;;;;5085654;28;20114;-77
2022/04/13 10:13:31;;;;;;;9.80;5.00;;;;;;;;;;5090712;28;20024;-77
2022/04/13 10:15:57;;;;;;;9.95;4.75;;;;;;;;;;5095240;28;20303;-76
2022/04/13 10:18:23;;;;;;;16.27;5.60;;;;;;;;;;5090562;28;20032;-78
2022/04/13 10:20:49;;;;;;;9.30;4.53;;;;;;;;;;5092217;28;20108;-77
2022/04/13 10:23:16;;;;;;;8.40;4.70;;;;;;;;;;5089664;28;20467;-77
2022/04/13 10:25:42;;;;;;;7.80;4.72;;;;;;;;;;5087197;28;20069;-77
2022/04/13 10:28:12;;;;;;;8.32;4.97;;;;;;;;;;5091521;28;20063;-78
2022/04/13 10:30:39;;;;;;;7.78;5.03;;;;;;;;;;5085270;28;21288;-78
2022/04/13 10:33:06;;;;;;;11.52;5.25;;;;;;;;;;5090371;28;20031;-78
2022/04/13 10:35:39;;;;;;;9.52;5.22;;;;;;;;;;5085373;28;20257;-78
2022/04/13 10:38:05;;;;;;;10.20;5.43;;;;;;;;;;5087561;28;20035;-78
2022/04/13 10:40:32;;;;;;;10.73;5.13;;;;;;;;;;5095532;28;20024;-78
2022/04/13 10:43:02;;;;;;;12.70;5.32;;;;;;;;;;5091853;28;20039;-77
2022/04/13 10:45:29;;;;;;;11.68;5.78;;;;;;;;;;5081403;28;20020;-78
2022/04/13 10:47:57;;;;;;;11.30;5.35;;;;;;;;;;5087206;28;20027;-77
2022/04/13 10:50:32;;;;;;;10.65;5.20;;;;;;;;;;5088769;28;20032;-76
2022/04/13 10:52:59;;;;;;;11.85;5.72;;;;;;;;;;5088488;28;20034;-78
2022/04/13 10:55:27;;;;;;;11.05;4.95;;;;;;;;;;5098038;28;20034;-78
2022/04/13 10:57:55;;;;;;;10.13;5.18;;;;;;;;;;5088854;28;20191;-77
2022/04/13 11:00:21;;;;;;;11.38;5.47;;;;;;;;;;5086153;28;20511;-76
2022/04/13 11:02:50;;;;;;;10.30;5.63;;;;;;;;;;5094224;28;20019;-76
2022/04/13 11:05:16;;;;;;;9.73;5.43;;;;;;;;;;5089373;28;20103;-76
2022/04/13 11:07:42;;;;;;;9.20;5.70;;;;;;;;;;5091442;28;20038;-79
2022/04/13 11:10:29;;;;;;;11.13;5.45;;;;;;;;;;5090866;28;20782;-79
2022/04/13 11:12:55;;;;;;;10.68;5.70;;;;;;;;;;5093279;28;20111;-78
2022/04/13 11:15:49;;;;;;;10.27;5.28;;;;;;;;;;5091617;28;20031;-79
2022/04/13 11:18:17;;;;;;;13.18;5.80;;;;;;;;;;5087137;28;20040;-78
2022/04/13 11:21:01;;;;;;;14.10;5.65;;;;;;;;;;5102742;28;20063;-78
2022/04/13 11:23:49;;;;;;;10.88;5.18;;;;;;;;;;5104010;28;20027;-78
2022/04/13 11:26:15;;;;;;;12.05;5.97;;;;;;;;;;5089442;28;20031;-78
2022/04/13 11:28:41;;;;;;;9.95;5.30;;;;;;;;;;5089544;28;20102;-78
2022/04/13 11:31:09;;;;;;;9.95;5.45;;;;;;;;;;5096157;28;20032;-78
2022/04/13 11:33:55;;;;;;;10.75;5.72;;;;;;;;;;5089219;28;20028;-78
2022/04/13 11:36:24;;;;;;;12.90;6.35;;;;;;;;;;5095653;28;20023;-78
2022/04/13 11:38:53;;;;;;;13.93;5.57;;;;;;;;;;5087954;28;20040;-78
2022/04/13 11:41:20;;;;;;;14.35;6.43;;;;;;;;;;5089696;28;20543;-78
2022/04/13 11:43:46;;;;;;;12.50;5.78;;;;;;;;;;5093101;28;20561;-80
2022/04/13 11:46:30;;;;;;;14.55;6.18;;;;;;;;;;5085990;28;20058;-79
2022/04/13 11:48:56;;;;;;;12.80;5.60;;;;;;;;;;5094126;28;20020;-82
2022/04/13 11:51:29;;;;;;;12.95;5.70;;;;;;;;;;5090914;28;20893;-81
2022/04/13 11:53:55;;;;;;;11.85;6.18;;;;;;;;;;5103744;28;20479;-81
2022/04/13 11:56:35;;;;;;;10.15;5.40;;;;;;;;;;5090419;28;20020;-81
2022/04/13 11:59:01;;;;;;;11.48;5.18;;;;;;;;;;5090931;28;20030;-82
2022/04/13 12:01:27;;;;;;;10.90;5.78;;;;;;;;;;5089523;28;20016;-81
2022/04/13 12:03:55;;;;;;;10.38;5.07;;;22.30;56.40;;;;;;5090200;28;20475;-81
2022/04/13 12:06:24;;;;;;;9.73;4.95;;;22.40;56.90;;;;;;5092817;28;20026;-81
2022/04/13 12:08:57;;;;;;;9.50;4.50;;;22.40;58.10;;;;;;5092014;28;20472;-79
2022/04/13 12:11:52;;;;;;;10.85;5.15;;;22.50;56.90;;;;;;5094991;28;20517;-78
2022/04/13 12:14:29;;;;;;;9.05;4.72;;;22.40;57.00;;;;;;5084942;28;20158;-79
2022/04/13 12:16:59;;;;;;;13.50;5.20;;;22.30;57.90;;;;;;5094214;28;20498;-79
2022/04/13 12:19:26;;;;;;;10.20;4.68;;;;;;;;;;5090531;28;20114;-80
2022/04/13 12:21:52;;;;;;;11.38;5.47;;;;;;;;;;5087412;28;20498;-80
2022/04/13 12:24:17;;;;;;;14.18;5.07;;;22.50;55.70;;;;;;5096461;28;20031;-80
2022/04/13 12:26:47;;;;;;;12.15;5.20;;;22.50;57.20;;;;;;5088542;28;20035;-80
2022/04/13 12:29:22;;;;;;;11.32;4.50;;;22.60;57.10;;;;;;5088937;28;20044;-80
2022/04/13 12:31:55;;;;;;;12.25;4.60;;;22.80;56.90;;;;;;5088577;28;20373;-80
2022/04/13 12:34:21;;;;;;;;;;;22.80;55.70;;;;;;5085407;28;20051;-80
2022/04/13 12:36:59;;;;;;;8.90;5.13;;;22.90;55.80;;;;;;5090270;28;20136;-80
2022/04/13 12:39:25;;;;;;;10.73;4.97;;;22.90;56.10;;;;;;5089263;28;20027;-82
2022/04/13 12:41:51;;;;;;;9.27;4.75;;;22.80;56.50;;;;;;5086874;28;20229;-81
2022/04/13 12:44:18;;;;;;;8.75;4.68;;;22.70;56.60;;;;;;5085491;28;20024;-81
2022/04/13 12:46:43;;;;;;;13.25;5.15;;;22.80;57.20;;;;;;5093549;28;20031;-82
2022/04/13 12:49:18;;;;;;;8.95;4.78;;;22.70;56.60;;;;;;5091573;28;20028;-82
2022/04/13 12:51:43;;;;;;;9.20;4.47;;;22.60;57.00;;;;;;5085703;28;20020;-82
2022/04/13 12:54:13;;;;;;;7.75;4.88;;;22.60;57.40;;;;;;5084832;28;20024;-82
2022/04/13 12:56:45;;;;;;;9.32;5.40;;;22.60;57.50;;;;;;5095005;28;20031;-82
2022/04/13 12:59:18;;;;;;;12.17;5.40;;;22.80;57.30;;;;;;5084375;28;20523;-83
2022/04/13 13:01:46;;;;;;;11.77;5.50;;;22.90;57.40;;;;;;5090122;28;20281;-75
2022/04/13 13:04:13;;;;;;;10.63;5.13;;;23.10;56.00;;;;;;5089249;28;20114;-75
2022/04/13 13:06:59;;;;;;;12.90;6.30;;;23.30;55.60;;;;;;5087802;28;20499;-79
2022/04/13 13:09:27;;;;;;;9.95;5.90;;;23.50;55.60;;;;;;5089162;28;20089;-79
2022/04/13 13:11:58;;;;;;;12.45;5.60;;;23.70;56.30;;;;;;5094401;28;20024;-79
2022/04/13 13:14:37;;;;;;;11.13;5.63;;;23.80;56.10;;;;;;5089214;28;20480;-80
2022/04/13 13:17:16;;;;;;;9.73;5.90;;;23.90;57.10;;;;;;5090262;28;20040;-78
2022/04/13 13:19:41;;;;;;;13.05;5.75;;;24.10;56.00;;;;;;5095754;28;20483;-79
2022/04/13 13:22:15;;;;;;;11.40;5.85;;;24.20;55.70;;;;;;5088847;28;20086;-78
2022/04/13 13:24:51;;;;;;;;;;;24.20;54.80;;;;;;5092500;28;20040;-78
2022/04/13 13:27:28;;;;;;;12.50;6.60;;;24.20;54.20;;;;;;5095209;28;19981;-79
2022/04/13 13:29:56;;;;;;;10.68;6.05;;;24.20;55.40;;;;;;5094380;28;20040;-80
2022/04/13 13:32:25;;;;;;;13.80;6.38;;;24.10;55.30;;;;;;5098527;28;20131;-80
2022/04/13 13:34:59;;;;;;;11.13;5.93;;;24.00;54.40;;;;;;5088829;28;20028;-81
2022/04/13 13:37:29;;;;;;;10.20;5.47;;;24.00;56.00;;;;;;5094976;28;20032;-81
2022/04/13 13:39:54;;;;;;;10.18;5.60;;;24.00;56.60;;;;;;5100934;28;20023;-80
2022/04/13 13:42:20;;;;;;;11.52;5.78;;;23.90;54.60;;;;;;5102671;28;20015;-84
2022/04/13 13:44:46;;;;;;;34.45;7.40;;;23.90;54.80;;;;;;5093756;28;20016;-85
2022/04/13 13:47:11;;;;;;;10.55;5.30;;;23.90;55.30;;;;;;5092957;28;20032;-85
2022/04/13 13:49:37;;;;;;;11.55;5.78;;;23.90;55.90;;;;;;5097501;28;20454;-85
2022/04/13 13:52:03;;;;;;;10.27;5.68;;;23.80;55.90;;;;;;5086422;28;20409;-81
2022/04/13 13:54:29;;;;;;;10.38;5.82;;;23.70;55.20;;;;;;5092388;28;20036;-77
2022/04/13 13:56:54;;;;;;;13.90;6.20;;;23.70;55.90;;;;;;5090357;28;20131;-80
2022/04/13 13:59:20;;;;;;;10.63;5.75;;;23.80;56.30;;;;;;5090065;28;20058;-79
2022/04/13 14:01:45;;;;;;;7.68;3.92;;;23.80;56.20;;;;;;5089328;28;20464;-78
2022/04/13 14:04:11;;;;;;;9.88;3.80;;;23.90;54.30;;;;;;5092778;28;20105;-79
2022/04/13 14:06:37;;;;;;;9.32;4.22;;;23.90;53.50;;;;;;5091806;28;20039;-78
2022/04/13 14:09:03;;;;;;;9.15;4.32;;;23.90;53.50;;;;;;5100412;28;20552;-79
2022/04/13 14:11:29;;;;;;;10.60;4.50;;;23.90;54.10;;;;;;5091987;28;20035;-78
2022/04/13 14:13:54;;;;;;;9.23;3.85;;;23.90;53.60;;;;;;5090585;28;20039;-77
2022/04/13 14:16:20;;;;;;;12.52;3.95;;;;;;;;;;5091049;28;20039;-80
2022/04/13 14:18:46;;;;;;;9.85;4.43;;;;;;;;;;5088976;28;21374;-80
2022/04/13 14:21:12;;;;;;;8.85;4.55;;;24.10;53.80;;;;;;5092050;28;20094;-78
2022/04/13 14:23:38;;;;;;;7.25;4.10;;;24.20;90.60;;;;;;5086619;28;20024;-77